Sentinel, North Dakota
Current Conditions -  °F | °C
As of 11:51 AM on Tuesday 21 Oct 2014 (Local Time) from KBHK Reporting Station
Clear Clear  
Wind Chill: 74°   Ceiling: Unl
Heat Index: 74°   Visibility: 10mi
Dew Point: 40°   Wind: 15mph
Humidity: 29%   Direction: 190°S
Pressure: 29.67"   Gusts: NA
Location:  46.8047°N, 103.735°W
Report Text: KBHK 211751Z AUTO 19013KT 10SM CLR 23/04 A2967 RMK AO2 SLP033 T02330044 10233 20033 58019
Loading
Personal Weather Stations






























Interactive Weather Map
Tropical Storm Tracking
New forecast layout! Learn more

10-Day Weather Forecast

Advertisements
Track Severe Weather on mobile